KFFO/FFO METAR and TAF weather

Enter ICAO airport designator
Station Type Date Time Source
KFFO METAR 2019/02/21 10:56 UTC NOAA

KFFO 211056Z 26004KT 10SM OVC027 02/M03 A3008 RMK AO2A SLP197 T00201031


Station Type Date Time Source
KFFO Decoded METAR 2019/02/21 10:56 UTC NOAA

Dayton / Wright-Patterson Air Force Base, OH, United States (KFFO) 39-50N 084-03W 251M
Feb 21, 2019 - 05:56 AM EST / 2019.02.21 1056 UTC
Wind: from the W (260 degrees) at 5 MPH (4 KT):0
Visibility: 10 mile(s):0
Sky conditions: overcast
Temperature: 35.6 F (2.0 C)
Dew Point: 26.4 F (-3.1 C)
Relative Humidity: 68%
Pressure (altimeter): 30.08 in. Hg (1018 hPa)
ob: KFFO 211056Z 26004KT 10SM OVC027 02/M03 A3008 RMK AO2A SLP197 T00201031
cycle: 11

Station Type Date Time Source
KFFO TAF 2019/02/21 11:06 UTC NOAA

TAF KFFO 211100Z 2111/2217 26009KT 9999 BKN020 620202 QNH3006INS
BECMG 2112/2114 24009KT 9999 SCT020 SCT150 QNH3016INS WND 34009KT AFT 2203
BECMG 2208/2209 03009KT 9999 SCT120 QNH3024INS WND 09009KT AFT 2215
TEMPO 2209/2212 8000 BR TX06/2121Z TN00/2112Z


Example: see airport list